Time;durP1;ratioP1;P1;durP2;ratioP2;P2;SDS_P1;SDS_P2;PMS_P1;PMS_P2;Temp;Humidity;BMP_temperature;BMP_pressure;BME280_temperature;BME280_humidity;BME280_pressure;Samples;Min_cycle;Max_cycle;Signal;HPM_P1;HPM_P2
2023/05/02 00:00:45;;;;;;;13.65;8.75;;;11.60;99.90;;;;;;5112517;28;20146;-63
2023/05/02 00:03:11;;;;;;;16.08;8.73;;;11.60;99.90;;;;;;5113651;28;20043;-63
2023/05/02 00:05:39;;;;;;;15.65;7.63;;;11.50;99.90;;;;;;5113266;28;20055;-62
2023/05/02 00:08:06;;;;;;;16.27;9.35;;;11.50;99.90;;;;;;5113769;28;20112;-63
2023/05/02 00:10:32;;;;;;;18.52;8.15;;;11.40;99.90;;;;;;5095278;28;20108;-63
2023/05/02 00:12:59;;;;;;;14.75;8.70;;;11.40;99.90;;;;;;5113677;28;20436;-62
2023/05/02 00:15:26;;;;;;;11.60;7.60;;;11.50;99.90;;;;;;5095041;28;20112;-63
2023/05/02 00:17:52;;;;;;;15.93;8.13;;;11.30;99.90;;;;;;5113209;28;20384;-63
2023/05/02 00:20:21;;;;;;;11.60;6.50;;;11.30;99.90;;;;;;5113180;28;20039;-63
2023/05/02 00:22:47;;;;;;;16.73;6.25;;;11.30;99.90;;;;;;5113433;28;20352;-63
2023/05/02 00:25:15;;;;;;;12.93;6.13;;;11.10;99.90;;;;;;5095481;28;20056;-63
2023/05/02 00:27:45;;;;;;;13.05;5.28;;;11.00;99.90;;;;;;5113300;28;20398;-62
2023/05/02 00:30:12;;;;;;;11.43;5.32;;;10.80;99.90;;;;;;5112851;28;20055;-63
2023/05/02 00:32:39;;;;;;;8.80;4.53;;;10.90;99.90;;;;;;5113162;28;20048;-63
2023/05/02 00:35:06;;;;;;;10.43;4.63;;;10.80;99.90;;;;;;5112714;28;20059;-63
2023/05/02 00:37:32;;;;;;;7.72;4.45;;;10.90;99.90;;;;;;5113222;28;20073;-63
2023/05/02 00:39:58;;;;;;;9.52;4.40;;;10.90;99.90;;;;;;5094359;28;20422;-63
2023/05/02 00:42:24;;;;;;;9.63;4.28;;;10.80;99.90;;;;;;5112723;28;20183;-63
2023/05/02 00:44:51;;;;;;;5.60;4.30;;;10.90;99.90;;;;;;5094234;28;20048;-63
2023/05/02 00:47:17;;;;;;;7.57;3.50;;;10.80;99.90;;;;;;5112984;28;20158;-62
2023/05/02 00:49:43;;;;;;;7.32;3.95;;;10.80;99.90;;;;;;5112560;28;20356;-63
2023/05/02 00:52:10;;;;;;;7.95;4.25;;;10.80;99.90;;;;;;5112419;28;20386;-62
2023/05/02 00:54:38;;;;;;;5.97;3.80;;;10.80;99.90;;;;;;5112801;28;20291;-63
2023/05/02 00:57:05;;;;;;;8.40;3.85;;;10.90;99.90;;;;;;5112649;28;20058;-62
2023/05/02 00:59:33;;;;;;;6.03;3.50;;;10.70;99.90;;;;;;5112162;28;20344;-63
2023/05/02 01:02:26;;;;;;;7.93;4.20;;;10.90;99.90;;;;;;5112034;28;20051;-63
2023/05/02 01:05:14;;;;;;;9.65;3.88;;;10.80;99.90;;;;;;5094129;28;20120;-64
2023/05/02 01:08:09;;;;;;;6.63;3.90;;;10.80;99.90;;;;;;5094771;28;20525;-62
2023/05/02 01:10:59;;;;;;;10.35;3.80;;;10.90;99.90;;;;;;5112085;28;20123;-62
2023/05/02 01:13:30;;;;;;;6.50;3.80;;;10.80;99.90;;;;;;5112413;28;20119;-63
2023/05/02 01:15:59;;;;;;;6.68;3.88;;;10.70;99.90;;;;;;5111863;28;20059;-62
2023/05/02 01:18:31;;;;;;;9.32;4.45;;;10.80;99.90;;;;;;5112198;28;20452;-63
2023/05/02 01:20:59;;;;;;;;;;;10.80;99.90;;;;;;5111960;28;20400;-62
2023/05/02 01:23:38;;;;;;;7.03;3.70;;;10.70;99.90;;;;;;5112337;28;19984;-63
2023/05/02 01:26:22;;;;;;;9.18;4.07;;;10.70;99.90;;;;;;5089904;28;20486;-63
2023/05/02 01:28:58;;;;;;;;;;;10.70;99.90;;;;;;5092248;28;20059;-63
2023/05/02 01:31:28;;;;;;;6.10;3.50;;;10.70;99.90;;;;;;5091066;28;19920;-62
2023/05/02 01:33:56;;;;;;;8.70;3.45;;;10.80;99.90;;;;;;5092359;28;20247;-63
2023/05/02 01:36:25;;;;;;;8.48;3.80;;;10.70;99.90;;;;;;5091359;28;20055;-63
2023/05/02 01:38:54;;;;;;;11.20;4.30;;;10.70;99.90;;;;;;5091828;28;20117;-63
2023/05/02 01:41:24;;;;;;;11.88;4.57;;;10.70;99.90;;;;;;5088348;28;20048;-63
2023/05/02 01:43:50;;;;;;;8.48;4.32;;;10.70;99.90;;;;;;5073693;28;20048;-63
2023/05/02 01:46:19;;;;;;;7.80;3.97;;;10.60;99.90;;;;;;5091420;28;20048;-63
2023/05/02 01:48:48;;;;;;;9.43;4.25;;;10.60;99.90;;;;;;5091966;28;20063;-63
2023/05/02 01:51:16;;;;;;;7.82;3.78;;;10.60;99.90;;;;;;5091302;28;20052;-63
2023/05/02 01:53:44;;;;;;;7.28;4.30;;;10.60;99.90;;;;;;5091829;28;20048;-63
2023/05/02 01:56:12;;;;;;;8.18;3.65;;;10.60;99.90;;;;;;5091487;28;20044;-63
2023/05/02 01:58:40;;;;;;;8.90;3.60;;;10.60;99.90;;;;;;5073651;28;20055;-63
2023/05/02 02:01:09;;;;;;;7.03;3.50;;;10.60;99.90;;;;;;5088339;28;20047;-63
2023/05/02 02:03:35;;;;;;;6.20;3.30;;;10.60;99.90;;;;;;5092028;28;20052;-63
2023/05/02 02:06:02;;;;;;;6.55;3.33;;;10.50;99.90;;;;;;5091535;28;20117;-63
2023/05/02 02:08:29;;;;;;;9.93;4.20;;;10.50;99.90;;;;;;5074192;28;20094;-63
2023/05/02 02:11:03;;;;;;;7.53;3.65;;;10.50;99.90;;;;;;5073770;28;20063;-63
2023/05/02 02:13:34;;;;;;;5.80;3.90;;;10.30;99.90;;;;;;5073682;28;20052;-63
2023/05/02 02:16:03;;;;;;;7.90;3.58;;;10.50;99.90;;;;;;5091030;28;20048;-63
2023/05/02 02:18:34;;;;;;;8.57;3.38;;;10.40;99.90;;;;;;5091424;28;20048;-63
2023/05/02 02:21:01;;;;;;;10.60;3.88;;;10.40;99.90;;;;;;5073081;28;20078;-63
2023/05/02 02:23:30;;;;;;;8.57;3.50;;;10.40;99.90;;;;;;5092110;28;20048;-63
2023/05/02 02:25:57;;;;;;;11.02;3.97;;;10.40;99.90;;;;;;5079250;28;20383;-63
2023/05/02 02:28:23;;;;;;;5.95;3.30;;;10.40;99.90;;;;;;5097401;28;20415;-63
2023/05/02 02:30:50;;;;;;;5.28;2.78;;;10.50;99.90;;;;;;5112191;28;20059;-63
2023/05/02 02:33:17;;;;;;;6.07;2.42;;;10.50;99.90;;;;;;5115752;28;20059;-62
2023/05/02 02:35:51;;;;;;;4.97;2.30;;;10.50;99.90;;;;;;5115046;28;20048;-64
2023/05/02 02:38:37;;;;;;;5.50;2.42;;;10.50;99.90;;;;;;5115568;28;20044;-63
2023/05/02 02:41:09;;;;;;;6.53;2.92;;;10.60;99.90;;;;;;5097149;28;20374;-63
2023/05/02 02:43:58;;;;;;;7.63;3.40;;;10.50;99.90;;;;;;5115437;28;20333;-61
2023/05/02 02:46:48;;;;;;;7.72;3.40;;;10.60;99.90;;;;;;5114817;28;20064;-63
2023/05/02 02:49:33;;;;;;;;;;;10.50;99.90;;;;;;5115569;28;20389;-63
2023/05/02 02:52:48;;;;;;;10.85;3.50;;;10.30;99.90;;;;;;5114496;28;19919;-63
2023/05/02 02:55:37;;;;;;;11.02;3.72;;;10.10;99.90;;;;;;5092518;28;20059;-63
2023/05/02 02:58:20;;;;;;;12.35;4.05;;;10.00;99.90;;;;;;5115387;28;20325;-63
2023/05/02 03:00:48;;;;;;;10.73;4.38;;;9.80;99.90;;;;;;5112269;28;20126;-63
2023/05/02 03:03:15;;;;;;;15.05;4.82;;;9.80;99.90;;;;;;5114682;28;20464;-63
2023/05/02 03:05:43;;;;;;;9.68;4.25;;;9.70;99.90;;;;;;5096228;28;20130;-63
2023/05/02 03:08:09;;;;;;;12.60;4.22;;;9.70;99.90;;;;;;5114963;28;20059;-63
2023/05/02 03:10:35;;;;;;;10.82;3.83;;;9.70;99.90;;;;;;5114589;28;20104;-63
2023/05/02 03:13:02;;;;;;;14.32;3.72;;;9.60;99.90;;;;;;5114745;28;20498;-63
2023/05/02 03:15:52;;;;;;;11.35;3.58;;;9.60;99.90;;;;;;5114141;28;20427;-63
2023/05/02 03:18:18;;;;;;;13.75;3.45;;;9.60;99.90;;;;;;5114773;28;20109;-63
2023/05/02 03:20:45;;;;;;;11.10;3.67;;;9.60;99.90;;;;;;5111797;28;20353;-63
2023/05/02 03:23:12;;;;;;;17.25;3.85;;;9.60;99.90;;;;;;5114712;28;20052;-62
2023/05/02 03:25:38;;;;;;;15.38;4.00;;;9.40;99.90;;;;;;5113995;28;20108;-63
2023/05/02 03:28:04;;;;;;;14.60;3.65;;;9.50;99.90;;;;;;5114476;28;20055;-63
2023/05/02 03:30:30;;;;;;;15.13;5.07;;;9.50;99.90;;;;;;5113869;28;20100;-63
2023/05/02 03:32:57;;;;;;;13.82;3.85;;;9.50;99.90;;;;;;5114897;28;20452;-62
2023/05/02 03:35:23;;;;;;;13.45;4.28;;;9.30;99.90;;;;;;5114280;28;20059;-62
2023/05/02 03:37:49;;;;;;;14.77;4.45;;;9.20;99.90;;;;;;5096219;28;20048;-64
2023/05/02 03:40:20;;;;;;;14.60;4.18;;;9.20;99.90;;;;;;5112252;28;20075;-62
2023/05/02 03:42:46;;;;;;;17.08;4.55;;;9.10;99.90;;;;;;5105791;28;20069;-63
2023/05/02 03:45:12;;;;;;;14.90;4.47;;;9.10;99.90;;;;;;5095773;28;20059;-63
2023/05/02 03:47:39;;;;;;;11.90;4.28;;;9.00;99.90;;;;;;5114112;28;20444;-63
2023/05/02 03:50:06;;;;;;;15.70;5.13;;;9.00;99.90;;;;;;5095411;28;20052;-63
2023/05/02 03:52:33;;;;;;;15.15;4.70;;;9.00;99.90;;;;;;5114442;28;20051;-63
2023/05/02 03:55:00;;;;;;;13.48;3.80;;;8.90;99.90;;;;;;5113351;28;20039;-62
2023/05/02 03:57:29;;;;;;;13.77;3.53;;;8.90;99.90;;;;;;5113887;28;20051;-63
2023/05/02 03:59:55;;;;;;;11.43;3.63;;;8.90;99.90;;;;;;5113737;28;20044;-63
2023/05/02 04:02:21;;;;;;;11.50;4.45;;;8.80;99.90;;;;;;5092130;28;20044;-63
2023/05/02 04:04:48;;;;;;;13.52;4.60;;;8.80;99.90;;;;;;5113441;28;20070;-63
2023/05/02 04:07:18;;;;;;;13.32;3.75;;;8.70;99.90;;;;;;5113260;28;20351;-63
2023/05/02 04:09:44;;;;;;;16.30;4.40;;;8.70;99.90;;;;;;5113612;28;20048;-63
2023/05/02 04:12:14;;;;;;;14.85;4.00;;;8.70;99.90;;;;;;5111552;28;20054;-63
2023/05/02 04:14:40;;;;;;;11.50;3.67;;;8.70;99.90;;;;;;5095728;28;20067;-63
2023/05/02 04:17:06;;;;;;;11.52;3.63;;;8.70;99.90;;;;;;5096607;28;20048;-63
2023/05/02 04:19:33;;;;;;;13.63;3.78;;;8.70;99.90;;;;;;5113324;28;20044;-62
2023/05/02 04:22:02;;;;;;;10.20;3.53;;;8.70;99.90;;;;;;5091545;28;20147;-63
2023/05/02 04:24:28;;;;;;;12.45;4.65;;;8.70;99.90;;;;;;5110755;28;20529;-63
2023/05/02 04:26:54;;;;;;;12.50;4.22;;;8.70;99.90;;;;;;5113173;28;20414;-63
2023/05/02 04:29:20;;;;;;;12.65;4.68;;;8.80;99.90;;;;;;5113387;28;20063;-63
2023/05/02 04:31:49;;;;;;;13.02;3.80;;;8.80;99.90;;;;;;5095215;28;20058;-63
2023/05/02 04:34:15;;;;;;;12.73;3.75;;;8.80;99.90;;;;;;5113081;28;20618;-62
2023/05/02 04:36:45;;;;;;;10.82;3.53;;;8.70;99.90;;;;;;5113079;28;20047;-63
2023/05/02 04:39:11;;;;;;;11.43;2.97;;;8.70;99.90;;;;;;5112791;28;20043;-63
2023/05/02 04:41:37;;;;;;;11.82;3.28;;;8.70;99.90;;;;;;5111580;28;20099;-63
2023/05/02 04:44:04;;;;;;;10.70;3.22;;;8.60;99.90;;;;;;5114050;28;20112;-63
2023/05/02 04:46:30;;;;;;;6.28;3.20;;;8.60;99.90;;;;;;5112591;28;20150;-62
2023/05/02 04:48:56;;;;;;;8.82;3.00;;;8.50;99.90;;;;;;5113474;28;20055;-63
2023/05/02 04:51:23;;;;;;;9.95;3.25;;;8.50;99.90;;;;;;5092297;28;20055;-63
2023/05/02 04:53:49;;;;;;;7.13;2.53;;;8.50;99.90;;;;;;5113387;28;20135;-63
2023/05/02 04:56:15;;;;;;;11.60;3.40;;;8.40;99.90;;;;;;5117109;27;20096;-63
2023/05/02 04:58:42;;;;;;;10.27;2.75;;;8.50;99.90;;;;;;5122524;27;20049;-63
2023/05/02 05:01:08;;;;;;;7.95;2.55;;;8.60;99.90;;;;;;5120345;27;20050;-63
2023/05/02 05:03:34;;;;;;;10.38;2.90;;;8.60;99.90;;;;;;5121887;27;20415;-63
2023/05/02 05:06:01;;;;;;;11.32;3.65;;;8.60;99.90;;;;;;5123215;27;20047;-63
2023/05/02 05:08:27;;;;;;;15.82;2.72;;;8.60;99.90;;;;;;5124263;27;20047;-63
2023/05/02 05:10:53;;;;;;;8.02;2.30;;;8.60;99.90;;;;;;5122802;27;20172;-62
2023/05/02 05:13:20;;;;;;;10.32;3.00;;;8.60;99.90;;;;;;5117150;27;20047;-63
2023/05/02 05:15:46;;;;;;;11.10;2.95;;;8.70;99.90;;;;;;5111027;28;20044;-63
2023/05/02 05:18:13;;;;;;;12.65;2.97;;;8.60;99.90;;;;;;5111959;28;20040;-62
2023/05/02 05:20:39;;;;;;;7.88;2.55;;;8.70;99.90;;;;;;5112190;28;20048;-62
2023/05/02 05:23:06;;;;;;;8.55;3.20;;;8.70;99.90;;;;;;5112961;28;20040;-62
2023/05/02 05:25:32;;;;;;;8.07;2.22;;;8.70;99.90;;;;;;5094800;28;20048;-63
2023/05/02 05:27:59;;;;;;;9.73;2.60;;;8.60;99.90;;;;;;5094710;28;20078;-62
2023/05/02 05:30:26;;;;;;;7.13;2.60;;;8.70;99.90;;;;;;5111949;28;20682;-61
2023/05/02 05:32:52;;;;;;;7.20;2.55;;;8.70;99.90;;;;;;5112558;28;20091;-62
2023/05/02 05:35:18;;;;;;;6.68;2.75;;;8.60;99.90;;;;;;5112581;28;20405;-62
2023/05/02 05:37:44;;;;;;;7.50;2.75;;;8.50;99.90;;;;;;5113515;28;20148;-62
2023/05/02 05:40:11;;;;;;;4.40;1.85;;;8.50;99.90;;;;;;5113113;28;20051;-60
2023/05/02 05:42:37;;;;;;;9.20;2.20;;;8.40;99.90;;;;;;5112410;28;20458;-62
2023/05/02 05:45:04;;;;;;;4.55;2.35;;;8.50;99.90;;;;;;5112721;28;20108;-62
2023/05/02 05:47:30;;;;;;;7.15;2.78;;;8.50;99.90;;;;;;5112173;28;20051;-62
2023/05/02 05:49:56;;;;;;;7.97;2.33;;;8.60;99.90;;;;;;5112164;28;20043;-63
2023/05/02 05:52:24;;;;;;;9.65;2.60;;;8.60;99.90;;;;;;5112503;28;20048;-63
2023/05/02 05:54:54;;;;;;;9.23;2.53;;;8.70;99.90;;;;;;5111971;28;20059;-62
2023/05/02 05:57:21;;;;;;;4.60;1.88;;;8.70;99.90;;;;;;5112989;28;20427;-62
2023/05/02 05:59:48;;;;;;;6.88;2.30;;;8.80;99.90;;;;;;5114647;28;20436;-62
2023/05/02 06:02:15;;;;;;;4.32;2.53;;;8.80;99.90;;;;;;5116582;28;20051;-62
2023/05/02 06:04:41;;;;;;;7.10;2.28;;;9.00;99.90;;;;;;5115882;28;20101;-63
2023/05/02 06:07:07;;;;;;;7.57;2.03;;;9.10;99.90;;;;;;5116028;28;20105;-62
2023/05/02 06:09:33;;;;;;;9.35;2.03;;;9.20;99.90;;;;;;5115797;28;20062;-62
2023/05/02 06:12:03;;;;;;;5.03;2.00;;;9.30;99.90;;;;;;5115499;28;20044;-62
2023/05/02 06:14:30;;;;;;;4.63;1.92;;;9.30;99.90;;;;;;5115333;28;20055;-63
2023/05/02 06:16:59;;;;;;;4.05;2.00;;;9.40;99.90;;;;;;5115780;28;20146;-62
2023/05/02 06:19:25;;;;;;;6.20;2.35;;;9.60;99.90;;;;;;5115153;28;20047;-62
2023/05/02 06:21:51;;;;;;;6.30;1.70;;;9.90;99.90;;;;;;5096847;28;20044;-62
2023/05/02 06:24:18;;;;;;;7.60;2.28;;;10.10;99.90;;;;;;5115093;28;20054;-63
2023/05/02 06:26:45;;;;;;;5.57;2.55;;;10.10;99.90;;;;;;5115255;28;20497;-62
2023/05/02 06:29:11;;;;;;;5.40;2.22;;;10.40;99.90;;;;;;5115548;28;20043;-63
2023/05/02 06:31:37;;;;;;;4.63;2.20;;;10.40;99.90;;;;;;5114956;28;20052;-63
2023/05/02 06:34:04;;;;;;;7.20;2.40;;;10.50;99.90;;;;;;5098396;28;20043;-63
2023/05/02 06:36:31;;;;;;;6.95;2.50;;;10.50;99.90;;;;;;5116295;28;20044;-63
2023/05/02 06:38:57;;;;;;;7.80;2.55;;;10.40;99.90;;;;;;5115980;28;20055;-62
2023/05/02 06:41:24;;;;;;;4.90;2.60;;;10.60;99.90;;;;;;5115455;28;20475;-63
2023/05/02 06:43:50;;;;;;;6.07;2.55;;;11.10;99.90;;;;;;5097979;28;20388;-64
2023/05/02 06:46:19;;;;;;;7.78;2.38;;;10.90;99.90;;;;;;5097495;28;20059;-63
2023/05/02 06:48:45;;;;;;;6.50;2.60;;;10.90;99.90;;;;;;5115562;28;20058;-63
2023/05/02 06:51:13;;;;;;;12.43;2.85;;;11.80;99.90;;;;;;5114568;28;20443;-63
2023/05/02 06:53:40;;;;;;;8.27;3.05;;;12.00;99.90;;;;;;5115295;28;20054;-63
2023/05/02 06:56:07;;;;;;;7.30;2.70;;;12.00;99.90;;;;;;5115296;28;20423;-63
2023/05/02 06:58:33;;;;;;;6.93;2.58;;;12.50;99.90;;;;;;5115517;28;20361;-63
2023/05/02 07:00:59;;;;;;;6.25;2.55;;;12.90;99.90;;;;;;5115485;28;20138;-63
2023/05/02 07:03:26;;;;;;;7.18;2.30;;;13.20;99.90;;;;;;5115330;28;20538;-64
2023/05/02 07:05:52;;;;;;;14.57;3.25;;;12.80;99.90;;;;;;5096568;28;20092;-62
2023/05/02 07:08:20;;;;;;;5.35;2.30;;;12.50;99.90;;;;;;5115486;28;20075;-63
2023/05/02 07:10:46;;;;;;;5.22;2.65;;;12.00;99.90;;;;;;5114348;28;20048;-63
2023/05/02 07:13:12;;;;;;;7.43;2.38;;;11.60;99.90;;;;;;5114990;28;20047;-62
2023/05/02 07:15:38;;;;;;;6.65;3.15;;;11.30;99.90;;;;;;5113943;28;20459;-63
2023/05/02 07:18:05;;;;;;;7.57;2.95;;;11.30;99.90;;;;;;5114542;28;20070;-62
2023/05/02 07:20:31;;;;;;;8.55;2.53;;;11.20;99.90;;;;;;5114869;28;20142;-63
2023/05/02 07:22:57;;;;;;;6.78;2.88;;;11.10;99.90;;;;;;5114786;28;20340;-62
2023/05/02 07:25:24;;;;;;;9.93;2.80;;;11.10;99.90;;;;;;5114210;28;20051;-62
2023/05/02 07:27:50;;;;;;;9.82;2.97;;;10.90;99.90;;;;;;5114327;28;20455;-62
2023/05/02 07:30:16;;;;;;;10.30;2.67;;;10.80;99.90;;;;;;5114362;28;20054;-63
2023/05/02 07:32:43;;;;;;;7.13;2.40;;;10.90;99.90;;;;;;5114019;28;20052;-62
2023/05/02 07:35:09;;;;;;;9.15;2.63;;;10.90;99.90;;;;;;5113600;28;20040;-62
2023/05/02 07:37:36;;;;;;;9.52;2.83;;;11.00;99.90;;;;;;5095993;28;20047;-64
2023/05/02 07:40:03;;;;;;;9.60;3.08;;;10.70;99.90;;;;;;5114608;28;20428;-62
2023/05/02 07:42:30;;;;;;;10.35;2.83;;;10.60;99.90;;;;;;5113747;28;20059;-62
2023/05/02 07:44:57;;;;;;;7.43;2.50;;;10.50;99.90;;;;;;5114104;28;20120;-62
2023/05/02 07:47:25;;;;;;;8.77;3.05;;;10.50;99.90;;;;;;5114838;28;20052;-62
2023/05/02 07:49:52;;;;;;;8.57;3.03;;;10.60;99.90;;;;;;5114306;28;20058;-62
2023/05/02 07:52:19;;;;;;;9.45;3.30;;;10.60;99.90;;;;;;5114742;28;20067;-62
2023/05/02 07:54:47;;;;;;;12.13;3.80;;;10.70;99.90;;;;;;5114426;28;20455;-61
2023/05/02 07:57:14;;;;;;;8.15;2.33;;;10.60;99.70;;;;;;5096423;28;20054;-63
2023/05/02 07:59:40;;;;;;;5.95;2.47;;;10.70;99.90;;;;;;5114563;28;20055;-62
2023/05/02 08:02:06;;;;;;;7.05;2.83;;;10.60;99.90;;;;;;5114619;28;20093;-62
2023/05/02 08:04:33;;;;;;;6.15;2.72;;;10.50;99.90;;;;;;5114274;28;20051;-62
2023/05/02 08:07:00;;;;;;;7.72;3.00;;;10.50;99.90;;;;;;5096544;28;20062;-63
2023/05/02 08:09:26;;;;;;;7.10;2.60;;;10.50;99.90;;;;;;5114504;28;20417;-63
2023/05/02 08:11:52;;;;;;;8.07;2.90;;;10.50;99.90;;;;;;5113929;28;20368;-62
2023/05/02 08:14:18;;;;;;;7.70;3.20;;;10.40;99.70;;;;;;5113109;28;20047;-62
2023/05/02 08:16:44;;;;;;;7.97;2.80;;;10.50;99.90;;;;;;5113977;28;20044;-63
2023/05/02 08:19:11;;;;;;;8.50;3.17;;;10.70;99.90;;;;;;5094745;28;20062;-63
2023/05/02 08:21:37;;;;;;;5.97;2.78;;;10.80;99.80;;;;;;5093617;28;20063;-63
2023/05/02 08:24:04;;;;;;;8.48;2.42;;;11.00;99.70;;;;;;5078169;28;20202;-62
2023/05/02 08:26:30;;;;;;;7.00;2.55;;;11.20;99.90;;;;;;5112789;28;20048;-62
2023/05/02 08:28:56;;;;;;;5.57;3.05;;;11.20;99.40;;;;;;5113273;28;20059;-63
2023/05/02 08:31:22;;;;;;;6.00;3.20;;;11.30;99.30;;;;;;5112574;28;20434;-63
2023/05/02 08:33:49;;;;;;;8.18;3.20;;;11.40;99.30;;;;;;5112602;28;20374;-63
2023/05/02 08:36:16;;;;;;;7.95;3.05;;;11.40;97.70;;;;;;5112410;28;20076;-63
2023/05/02 08:38:44;;;;;;;10.77;3.08;;;11.30;98.50;;;;;;5113014;28;20047;-63
2023/05/02 08:41:11;;;;;;;8.90;3.00;;;11.40;97.80;;;;;;5112252;28;20374;-63
2023/05/02 08:43:40;;;;;;;7.28;2.92;;;11.40;99.00;;;;;;5112851;28;20047;-63
2023/05/02 08:46:08;;;;;;;8.15;3.40;;;11.50;98.50;;;;;;5094042;28;20059;-62
2023/05/02 08:48:36;;;;;;;8.32;2.67;;;11.60;99.10;;;;;;5113109;28;20062;-63
2023/05/02 08:51:03;;;;;;;7.93;4.65;;;11.70;99.20;;;;;;5094456;28;20100;-63
2023/05/02 08:53:33;;;;;;;6.72;3.33;;;11.60;99.30;;;;;;5112547;28;20060;-62
2023/05/02 08:55:59;;;;;;;6.95;2.72;;;11.50;98.30;;;;;;5112011;28;20059;-62
2023/05/02 08:58:26;;;;;;;7.03;2.63;;;11.80;99.70;;;;;;5112071;28;20452;-63
2023/05/02 09:00:54;;;;;;;4.43;3.05;;;12.00;99.30;;;;;;5094125;28;20378;-63
2023/05/02 09:03:28;;;;;;;5.05;2.50;;;12.10;99.20;;;;;;5094168;28;20048;-63
2023/05/02 09:06:05;;;;;;;5.85;2.75;;;12.10;98.80;;;;;;5111711;28;20105;-62
2023/05/02 09:08:31;;;;;;;6.43;2.30;;;12.20;98.70;;;;;;5111951;28;20351;-63
2023/05/02 09:10:58;;;;;;;7.05;2.97;;;12.30;98.90;;;;;;5111776;28;20048;-63
2023/05/02 09:13:32;;;;;;;4.35;2.65;;;12.30;99.00;;;;;;5112220;28;20051;-63
2023/05/02 09:16:01;;;;;;;7.63;3.13;;;12.30;98.70;;;;;;5111768;28;20069;-63
2023/05/02 09:18:29;;;;;;;4.43;2.85;;;12.30;99.30;;;;;;5112214;28;20348;-62
2023/05/02 09:20:57;;;;;;;6.97;2.70;;;12.00;98.40;;;;;;5111709;28;20436;-62
2023/05/02 09:23:41;;;;;;;6.68;2.53;;;11.90;99.40;;;;;;5094200;28;20108;-63
2023/05/02 09:26:14;;;;;;;6.82;3.28;;;11.90;99.40;;;;;;5093943;28;20157;-62
2023/05/02 09:28:42;;;;;;;6.68;3.00;;;11.90;99.90;;;;;;5093858;28;20051;-62
2023/05/02 09:31:10;;;;;;;7.68;3.53;;;11.70;99.70;;;;;;5093658;28;20111;-62
2023/05/02 09:33:37;;;;;;;7.95;2.83;;;11.50;99.90;;;;;;5115993;28;20058;-62
2023/05/02 09:36:06;;;;;;;5.75;2.63;;;11.50;99.90;;;;;;5118492;28;20044;-62
2023/05/02 09:38:32;;;;;;;7.10;3.05;;;11.30;99.90;;;;;;5118860;28;20418;-62
2023/05/02 09:40:59;;;;;;;8.00;4.03;;;11.30;99.90;;;;;;5118477;28;20047;-62
2023/05/02 09:43:25;;;;;;;9.30;3.10;;;11.20;99.90;;;;;;5118649;28;20054;-64
2023/05/02 09:46:06;;;;;;;6.82;2.63;;;11.30;99.90;;;;;;5118282;28;20047;-62
2023/05/02 09:48:54;;;;;;;7.32;2.70;;;11.30;99.90;;;;;;5118517;28;20051;-62
2023/05/02 09:51:22;;;;;;;6.65;2.75;;;11.40;99.90;;;;;;5100423;28;20464;-63
2023/05/02 09:53:50;;;;;;;6.85;2.80;;;11.50;99.90;;;;;;5118444;28;20048;-63
2023/05/02 09:56:17;;;;;;;8.32;2.53;;;11.70;99.90;;;;;;5118558;28;20040;-62
2023/05/02 09:58:43;;;;;;;7.28;2.53;;;11.70;99.90;;;;;;5100186;28;20054;-62
2023/05/02 10:01:15;;;;;;;5.60;2.60;;;12.00;99.90;;;;;;5100254;28;20039;-63
2023/05/02 10:03:45;;;;;;;6.88;2.60;;;11.90;99.40;;;;;;5100062;28;20061;-63
2023/05/02 10:06:12;;;;;;;9.57;3.00;;;11.70;99.60;;;;;;5118854;28;20039;-63
2023/05/02 10:08:38;;;;;;;5.93;2.95;;;11.70;98.90;;;;;;5118584;28;20378;-63
2023/05/02 10:11:07;;;;;;;8.18;2.72;;;11.80;99.70;;;;;;5118586;28;20059;-63
2023/05/02 10:13:38;;;;;;;10.20;2.55;;;12.00;98.90;;;;;;5100304;28;20424;-63
2023/05/02 10:16:06;;;;;;;4.65;2.30;;;12.00;98.20;;;;;;5118339;28;20051;-63
2023/05/02 10:18:55;;;;;;;4.97;2.20;;;12.20;98.50;;;;;;5100178;28;20048;-62
2023/05/02 10:21:26;;;;;;;5.47;2.25;;;12.30;98.20;;;;;;5117920;28;20047;-63
2023/05/02 10:23:53;;;;;;;11.25;2.97;;;12.10;97.50;;;;;;5118248;28;20043;-62
2023/05/02 10:26:20;;;;;;;4.13;2.30;;;12.30;97.50;;;;;;5117989;28;20120;-62
2023/05/02 10:28:47;;;;;;;7.43;2.45;;;12.20;96.90;;;;;;5118310;28;20035;-64
2023/05/02 10:31:14;;;;;;;4.72;2.13;;;12.20;97.10;;;;;;5118336;28;20447;-62
2023/05/02 10:33:40;;;;;;;5.80;2.42;;;12.20;97.20;;;;;;5118442;28;20142;-63
2023/05/02 10:36:13;;;;;;;5.85;2.22;;;12.50;97.10;;;;;;5118173;28;20043;-63
2023/05/02 10:38:40;;;;;;;7.20;2.13;;;12.50;95.80;;;;;;5118455;28;20048;-62
2023/05/02 10:41:14;;;;;;;5.25;2.40;;;12.70;96.80;;;;;;5118069;28;20097;-63
2023/05/02 10:43:45;;;;;;;6.53;2.22;;;13.00;96.50;;;;;;5099870;28;20055;-63
2023/05/02 10:46:34;;;;;;;5.82;2.13;;;13.00;96.00;;;;;;5114318;28;20063;-63
2023/05/02 10:49:09;;;;;;;5.30;2.55;;;12.70;94.90;;;;;;5115093;28;20047;-62
2023/05/02 10:51:38;;;;;;;5.72;2.30;;;12.60;95.30;;;;;;5114430;28;20401;-63
2023/05/02 10:54:16;;;;;;;5.85;2.30;;;12.60;96.60;;;;;;5114640;28;20088;-63
2023/05/02 10:57:03;;;;;;;6.70;2.03;;;12.90;96.80;;;;;;5114353;28;20456;-63
2023/05/02 10:59:37;;;;;;;5.38;2.25;;;13.20;95.90;;;;;;5114455;28;20044;-63
2023/05/02 11:02:26;;;;;;;7.30;2.53;;;13.50;95.60;;;;;;5114927;28;20047;-64
2023/05/02 11:05:06;;;;;;;6.60;2.10;;;13.10;96.00;;;;;;5101422;28;20051;-62
2023/05/02 11:07:34;;;;;;;4.75;2.17;;;12.90;96.20;;;;;;5096818;28;20059;-62
2023/05/02 11:10:16;;;;;;;4.78;2.03;;;12.90;96.30;;;;;;5096469;28;20056;-65
2023/05/02 11:12:47;;;;;;;6.28;2.13;;;12.90;95.90;;;;;;5114583;28;20054;-63
2023/05/02 11:15:35;;;;;;;5.97;2.80;;;12.70;95.40;;;;;;5114905;28;20048;-63
2023/05/02 11:18:05;;;;;;;6.03;1.90;;;13.00;95.90;;;;;;5115457;28;20459;-63
2023/05/02 11:20:31;;;;;;;4.75;2.17;;;13.00;96.00;;;;;;5115803;28;20048;-64
2023/05/02 11:23:24;;;;;;;3.70;2.08;;;13.00;95.40;;;;;;5097949;28;20047;-64
2023/05/02 11:25:56;;;;;;;4.93;2.03;;;13.10;95.30;;;;;;5115349;28;20069;-63
2023/05/02 11:28:42;;;;;;;4.53;2.03;;;13.10;95.70;;;;;;5115875;28;20044;-63
2023/05/02 11:31:27;;;;;;;3.88;1.63;;;13.50;95.50;;;;;;5115437;28;20044;-64
2023/05/02 11:34:02;;;;;;;4.63;1.80;;;13.50;95.50;;;;;;5097162;28;20047;-63
2023/05/02 11:36:32;;;;;;;6.65;2.13;;;13.50;95.30;;;;;;5115613;28;20462;-63
2023/05/02 11:39:04;;;;;;;5.68;1.80;;;13.70;95.10;;;;;;5115490;28;20345;-63
2023/05/02 11:41:41;;;;;;;4.60;1.83;;;13.70;94.80;;;;;;5097391;28;20043;-64
2023/05/02 11:44:07;;;;;;;3.83;1.80;;;13.60;94.30;;;;;;5096729;28;20100;-64
2023/05/02 11:46:38;;;;;;;6.28;2.08;;;13.80;94.90;;;;;;5115487;28;20092;-63
2023/05/02 11:49:05;;;;;;;6.50;2.13;;;13.70;94.40;;;;;;5097398;28;20047;-64
2023/05/02 11:51:31;;;;;;;4.10;1.80;;;13.70;94.60;;;;;;5114694;28;20043;-64
2023/05/02 11:53:57;;;;;;;5.18;2.00;;;13.80;95.20;;;;;;5114659;28;20059;-63
2023/05/02 11:56:25;;;;;;;6.57;2.30;;;13.90;94.80;;;;;;5096043;28;20067;-63
2023/05/02 11:58:59;;;;;;;3.70;2.00;;;13.80;95.10;;;;;;5097100;28;20054;-63
2023/05/02 12:01:26;;;;;;;4.78;2.13;;;13.40;94.50;;;;;;5114836;28;20044;-63
2023/05/02 12:04:02;;;;;;;3.25;1.63;;;13.40;94.90;;;;;;5096447;28;20051;-63
2023/05/02 12:06:28;;;;;;;3.97;2.15;;;13.40;94.90;;;;;;5114843;28;20044;-64
2023/05/02 12:09:06;;;;;;;4.18;2.10;;;13.30;94.80;;;;;;5097095;28;20043;-63
2023/05/02 12:11:34;;;;;;;3.78;2.20;;;13.50;95.10;;;;;;5114610;28;20036;-64
2023/05/02 12:14:01;;;;;;;3.33;2.00;;;13.60;95.20;;;;;;5114442;28;20051;-63
2023/05/02 12:16:27;;;;;;;7.35;4.13;;;13.50;95.10;;;;;;5114749;28;20056;-64
2023/05/02 12:18:56;;;;;;;5.65;2.30;;;13.60;95.70;;;;;;5115411;28;20467;-63
2023/05/02 12:21:23;;;;;;;4.10;1.90;;;13.70;95.60;;;;;;5096843;28;20039;-64
2023/05/02 12:23:49;;;;;;;5.63;1.95;;;13.60;95.30;;;;;;5114583;28;20051;-63
2023/05/02 12:26:23;;;;;;;4.60;2.20;;;13.40;95.30;;;;;;5090821;28;20044;-63
2023/05/02 12:28:51;;;;;;;5.32;2.38;;;13.50;95.40;;;;;;5076289;28;20044;-63
2023/05/02 12:31:18;;;;;;;5.40;2.40;;;13.60;94.70;;;;;;5093722;28;20090;-62
2023/05/02 12:33:49;;;;;;;4.65;1.95;;;13.70;95.20;;;;;;5075429;28;20498;-64
2023/05/02 12:36:16;;;;;;;4.40;1.83;;;13.80;95.20;;;;;;5094090;28;20113;-64
2023/05/02 12:38:58;;;;;;;4.30;1.92;;;13.90;94.50;;;;;;5059836;28;20062;-62
2023/05/02 12:41:36;;;;;;;6.53;1.75;;;13.90;94.40;;;;;;5075623;28;20044;-63
2023/05/02 12:44:03;;;;;;;3.63;1.83;;;13.90;94.50;;;;;;5093648;28;20044;-63
2023/05/02 12:46:30;;;;;;;5.75;2.00;;;14.00;94.40;;;;;;5094185;28;20077;-63
2023/05/02 12:49:08;;;;;;;3.47;2.38;;;13.90;94.30;;;;;;5093543;28;20493;-63
2023/05/02 12:51:35;;;;;;;3.70;2.33;;;13.90;94.60;;;;;;5093098;28;20406;-63
2023/05/02 12:54:02;;;;;;;6.13;1.77;;;14.00;94.80;;;;;;5093623;28;20075;-63
2023/05/02 12:56:31;;;;;;;6.10;1.98;;;13.80;94.40;;;;;;5093832;28;20056;-63
2023/05/02 12:59:03;;;;;;;5.25;1.73;;;13.80;94.90;;;;;;5076036;28;20036;-64